MSC Lea — 9HA2639 — position and weather

sailwx.info

Track history (hours):
 
Tides and Currents Weather Stations Pressure Air Temp Water Temp Dewpoint Dewpoint Depression Visibility Wind Speed Wind Dir Waves Ship Positions

MSC Lea

Last reported at 2014-Aug-21 23:04 UTC. Time now 2014-Aug-22 00:01 UTC.
Position N 38°16' E 024°51'.

Length 217 m; draft 10.9 m.

Type: Ship (hazmat cat A). MMSI: 215101000.

Date/timePositionNaut miles runAvg speedWind from/ knotsBaromVisibWave heightAir tempDewpointWater temp
2014-Aug-21 23:04N 38°16' E 024°51'2113.1
2014-Aug-21 21:28N 37°58' E 024°37'1213.5
2014-Aug-21 20:33N 37°50' E 024°26'1913.3
2014-Aug-21 19:08N 37°37' E 024°08'813.2
2014-Aug-21 18:33N 37°36' E 023°59'1312.9
2014-Aug-21 17:33N 37°39' E 023°42'1212.6
2014-Aug-21 16:33N 37°50' E 023°36'7 6.7
2014-Aug-21 15:33N 37°57' E 023°36'0 0.0
2014-Aug-21 14:31N 37°57' E 023°36'0 0.0
2014-Aug-21 13:31N 37°57' E 023°36'0 0.0
2014-Aug-21 12:32N 37°57' E 023°36'0 0.0
2014-Aug-21 11:33N 37°57' E 023°36'0 0.0
2014-Aug-21 10:33N 37°57' E 023°36'0 0.0
2014-Aug-21 09:31N 37°57' E 023°36'0 0.0
2014-Aug-21 08:32N 37°57' E 023°36'0 0.0
2014-Aug-21 07:32N 37°57' E 023°36'0 0.0
2014-Aug-21 06:33N 37°57' E 023°36'0 0.0
2014-Aug-21 05:28N 37°57' E 023°36'0 0.0
2014-Aug-21 04:31N 37°57' E 023°36'0 0.0
2014-Aug-21 03:32N 37°57' E 023°36'0 0.0
2014-Aug-21 02:33N 37°57' E 023°36'0 0.0
2014-Aug-21 01:33N 37°57' E 023°36'0 0.0
2014-Aug-21 00:31N 37°57' E 023°36'0 0.0
2014-Aug-20 23:32N 37°57' E 023°36'0 0.0
2014-Aug-20 22:32N 37°57' E 023°36'2 2.4
2014-Aug-20 21:33N 37°55' E 023°35'9 8.8
2014-Aug-20 20:34N 37°47' E 023°41'1716.3
2014-Aug-20 19:30N 37°31' E 023°49'1717.4
2014-Aug-20 18:32N 37°15' E 023°54'1717.6
2014-Aug-20 17:33N 36°59' E 023°60'1817.8
2014-Aug-20 16:33N 36°41' E 024°05'1817.9
2014-Aug-20 15:33N 36°31' E 024°23'1818.3
2014-Aug-20 14:33N 36°21' E 024°43'1818.0
2014-Aug-20 13:33N 36°11' E 025°01'1817.9
2014-Aug-20 12:33N 36°02' E 025°20'1818.1
2014-Aug-20 11:33N 35°52' E 025°39'1817.7
2014-Aug-20 10:33N 35°42' E 025°57'  
2014-Aug-18 02:32N 31°54' E 030°36'1313.3
2014-Aug-18 01:33N 31°55' E 030°51'1313.3
2014-Aug-18 00:33N 31°56' E 031°07'7913.1
2014-Aug-17 18:32N 32°03' E 032°40'1514.0
2014-Aug-17 17:27N 32°04' E 032°58'1314.0
2014-Aug-17 16:32N 32°05' E 033°13'1414.0
2014-Aug-17 15:33N 32°06' E 033°29'1414.2
2014-Aug-17 14:33N 32°08' E 033°46'1413.6
2014-Aug-17 13:33N 32°03' E 034°01'25 0.6
2014-Aug-15 17:33N 31°56' E 034°29'1413.6
2014-Aug-15 16:29N 32°09' E 034°34'1413.8
2014-Aug-15 15:29N 32°23' E 034°38'1313.7
2014-Aug-15 14:33N 32°35' E 034°43'1313.6
2014-Aug-15 13:33N 32°48' E 034°47'1010.4
2014-Aug-15 12:33N 32°52' E 034°59'3 0.4
2014-Aug-15 04:32N 32°49' E 035°01'3 2.1
2014-Aug-15 03:17N 32°51' E 034°60'1 1.4
2014-Aug-15 02:33N 32°52' E 034°59'0 0.0
2014-Aug-15 01:31N 32°52' E 034°59'0 0.0
2014-Aug-14 23:32N 32°52' E 034°59'0 0.0
2014-Aug-14 22:24N 32°52' E 034°59'0 0.0
2014-Aug-14 21:28N 32°52' E 034°59'0 0.0
2014-Aug-14 19:29N 32°52' E 034°59'0 0.0
2014-Aug-14 18:27N 32°52' E 034°59'0 0.0
2014-Aug-14 17:27N 32°52' E 034°59'0 0.0
2014-Aug-14 16:31N 32°52' E 034°59'0 0.0
2014-Aug-14 14:32N 32°52' E 034°59'0 0.0
2014-Aug-14 11:28N 32°52' E 034°59'0 0.0
2014-Aug-14 10:14N 32°52' E 034°59'0 0.0
2014-Aug-14 08:30N 32°52' E 034°59'0 0.0
2014-Aug-14 05:11N 32°53' E 034°59'0 0.1
2014-Aug-14 04:33N 32°52' E 034°59'0 0.1
2014-Aug-14 02:17N 32°53' E 034°59'2111.7
2014-Aug-14 00:31N 32°56' E 034°35'1818.2
2014-Aug-13 23:33N 32°60' E 034°14'1414.0
2014-Aug-13 22:33N 33°09' E 034°02'1817.7
2014-Aug-13 21:33N 33°26' E 034°06'1818.0
2014-Aug-13 20:33N 33°44' E 034°11'1818.1
2014-Aug-13 19:33N 34°01' E 034°16'1817.8
2014-Aug-13 18:33N 34°19' E 034°21'1817.6
2014-Aug-13 17:33N 34°36' E 034°25'2517.6
2014-Aug-13 16:08N 35°00' E 034°32'369 9.0
2014-Aug-11 23:09N 36°14' E 027°07'  
Track history (hours):
 
Tides and Currents Weather Stations Pressure Air Temp Water Temp Dewpoint Dewpoint Depression Visibility Wind Speed Wind Dir Waves Ship Positions

MSC Lea

Last reported at 2014-Aug-21 23:04 UTC. Time now 2014-Aug-22 00:01 UTC.
Position N 38°16' E 024°51'.

Length 217 m; draft 10.9 m.

Type: Ship (hazmat cat A). MMSI: 215101000.

Date/timePositionNaut miles runAvg speedWind from/ knotsBaromVisibWave heightAir tempDewpointWater temp
2014-Aug-21 23:04N 38°16' E 024°51'2113.1
2014-Aug-21 21:28N 37°58' E 024°37'1213.5
2014-Aug-21 20:33N 37°50' E 024°26'1913.3
2014-Aug-21 19:08N 37°37' E 024°08'813.2
2014-Aug-21 18:33N 37°36' E 023°59'1312.9
2014-Aug-21 17:33N 37°39' E 023°42'1212.6
2014-Aug-21 16:33N 37°50' E 023°36'7 6.7
2014-Aug-21 15:33N 37°57' E 023°36'0 0.0
2014-Aug-21 14:31N 37°57' E 023°36'0 0.0
2014-Aug-21 13:31N 37°57' E 023°36'0 0.0
2014-Aug-21 12:32N 37°57' E 023°36'0 0.0
2014-Aug-21 11:33N 37°57' E 023°36'0 0.0
2014-Aug-21 10:33N 37°57' E 023°36'0 0.0
2014-Aug-21 09:31N 37°57' E 023°36'0 0.0
2014-Aug-21 08:32N 37°57' E 023°36'0 0.0
2014-Aug-21 07:32N 37°57' E 023°36'0 0.0
2014-Aug-21 06:33N 37°57' E 023°36'0 0.0
2014-Aug-21 05:28N 37°57' E 023°36'0 0.0
2014-Aug-21 04:31N 37°57' E 023°36'0 0.0
2014-Aug-21 03:32N 37°57' E 023°36'0 0.0
2014-Aug-21 02:33N 37°57' E 023°36'0 0.0
2014-Aug-21 01:33N 37°57' E 023°36'0 0.0
2014-Aug-21 00:31N 37°57' E 023°36'0 0.0
2014-Aug-20 23:32N 37°57' E 023°36'0 0.0
2014-Aug-20 22:32N 37°57' E 023°36'2 2.4
2014-Aug-20 21:33N 37°55' E 023°35'9 8.8
2014-Aug-20 20:34N 37°47' E 023°41'1716.3
2014-Aug-20 19:30N 37°31' E 023°49'1717.4
2014-Aug-20 18:32N 37°15' E 023°54'1717.6
2014-Aug-20 17:33N 36°59' E 023°60'1817.8
2014-Aug-20 16:33N 36°41' E 024°05'1817.9
2014-Aug-20 15:33N 36°31' E 024°23'1818.3
2014-Aug-20 14:33N 36°21' E 024°43'1818.0
2014-Aug-20 13:33N 36°11' E 025°01'1817.9
2014-Aug-20 12:33N 36°02' E 025°20'1818.1
2014-Aug-20 11:33N 35°52' E 025°39'1817.7
2014-Aug-20 10:33N 35°42' E 025°57'  
2014-Aug-18 02:32N 31°54' E 030°36'1313.3
2014-Aug-18 01:33N 31°55' E 030°51'1313.3
2014-Aug-18 00:33N 31°56' E 031°07'7913.1
2014-Aug-17 18:32N 32°03' E 032°40'1514.0
2014-Aug-17 17:27N 32°04' E 032°58'1314.0
2014-Aug-17 16:32N 32°05' E 033°13'1414.0
2014-Aug-17 15:33N 32°06' E 033°29'1414.2
2014-Aug-17 14:33N 32°08' E 033°46'1413.6
2014-Aug-17 13:33N 32°03' E 034°01'25 0.6
2014-Aug-15 17:33N 31°56' E 034°29'1413.6
2014-Aug-15 16:29N 32°09' E 034°34'1413.8
2014-Aug-15 15:29N 32°23' E 034°38'1313.7
2014-Aug-15 14:33N 32°35' E 034°43'1313.6
2014-Aug-15 13:33N 32°48' E 034°47'1010.4
2014-Aug-15 12:33N 32°52' E 034°59'3 0.4
2014-Aug-15 04:32N 32°49' E 035°01'3 2.1
2014-Aug-15 03:17N 32°51' E 034°60'1 1.4
2014-Aug-15 02:33N 32°52' E 034°59'0 0.0
2014-Aug-15 01:31N 32°52' E 034°59'0 0.0
2014-Aug-14 23:32N 32°52' E 034°59'0 0.0
2014-Aug-14 22:24N 32°52' E 034°59'0 0.0
2014-Aug-14 21:28N 32°52' E 034°59'0 0.0
2014-Aug-14 19:29N 32°52' E 034°59'0 0.0
2014-Aug-14 18:27N 32°52' E 034°59'0 0.0
2014-Aug-14 17:27N 32°52' E 034°59'0 0.0
2014-Aug-14 16:31N 32°52' E 034°59'0 0.0
2014-Aug-14 14:32N 32°52' E 034°59'0 0.0
2014-Aug-14 11:28N 32°52' E 034°59'0 0.0
2014-Aug-14 10:14N 32°52' E 034°59'0 0.0
2014-Aug-14 08:30N 32°52' E 034°59'0 0.0
2014-Aug-14 05:11N 32°53' E 034°59'0 0.1
2014-Aug-14 04:33N 32°52' E 034°59'0 0.1
2014-Aug-14 02:17N 32°53' E 034°59'2111.7
2014-Aug-14 00:31N 32°56' E 034°35'1818.2
2014-Aug-13 23:33N 32°60' E 034°14'1414.0
2014-Aug-13 22:33N 33°09' E 034°02'1817.7
2014-Aug-13 21:33N 33°26' E 034°06'1818.0
2014-Aug-13 20:33N 33°44' E 034°11'1818.1
2014-Aug-13 19:33N 34°01' E 034°16'1817.8
2014-Aug-13 18:33N 34°19' E 034°21'1817.6
2014-Aug-13 17:33N 34°36' E 034°25'2517.6
2014-Aug-13 16:08N 35°00' E 034°32'369 9.0
2014-Aug-11 23:09N 36°14' E 027°07'  

Dump ship's entire track history